createdAt,value
2023-04-16T00:00:48.314Z,7.55
2023-04-16T00:03:16.369Z,12.25
2023-04-16T00:05:43.704Z,9.35
2023-04-16T00:08:10.924Z,6.97
2023-04-16T00:10:38.225Z,10.70
2023-04-16T00:13:05.318Z,7.07
2023-04-16T00:15:32.482Z,6.82
2023-04-16T00:17:59.809Z,8.43
2023-04-16T00:20:27.039Z,9.27
2023-04-16T00:22:54.273Z,7.20
2023-04-16T00:25:21.652Z,7.70
2023-04-16T00:27:48.850Z,9.18
2023-04-16T00:30:16.742Z,9.23
2023-04-16T00:32:43.881Z,9.98
2023-04-16T00:35:11.202Z,11.37
2023-04-16T00:37:40.938Z,8.30
2023-04-16T00:40:08.798Z,9.35
2023-04-16T00:42:38.493Z,6.60
2023-04-16T00:45:06.656Z,9.88
2023-04-16T00:47:34.296Z,13.83
2023-04-16T00:50:03.693Z,8.25
2023-04-16T00:52:33.067Z,12.32
2023-04-16T00:55:00.870Z,9.75
2023-04-16T00:57:31.006Z,14.25
2023-04-16T00:59:58.863Z,9.57
2023-04-16T01:02:26.466Z,10.70
2023-04-16T01:04:53.925Z,8.70
2023-04-16T01:07:21.483Z,9.35
2023-04-16T01:09:49.160Z,7.65
2023-04-16T01:12:16.342Z,13.27
2023-04-16T01:14:43.491Z,8.82
2023-04-16T01:17:10.852Z,6.97
2023-04-16T01:19:38.525Z,8.73
2023-04-16T01:22:08.816Z,7.45
2023-04-16T01:24:36.656Z,9.23
2023-04-16T01:27:03.904Z,6.97
2023-04-16T01:29:31.168Z,8.30
2023-04-16T01:31:59.741Z,6.07
2023-04-16T01:34:31.546Z,5.15
2023-04-16T01:36:58.992Z,7.23
2023-04-16T01:39:26.084Z,5.65
2023-04-16T01:41:55.554Z,9.20
2023-04-16T01:44:23.333Z,11.20
2023-04-16T01:46:50.548Z,9.02
2023-04-16T01:49:18.084Z,8.73
2023-04-16T01:51:45.461Z,6.63
2023-04-16T01:54:13.010Z,7.85
2023-04-16T01:56:40.274Z,6.40
2023-04-16T01:59:07.662Z,5.88
2023-04-16T02:01:39.694Z,5.77
2023-04-16T02:04:07.537Z,6.82
2023-04-16T02:06:34.740Z,6.63
2023-04-16T02:09:02.328Z,7.20
2023-04-16T02:11:29.527Z,7.78
2023-04-16T02:13:56.803Z,6.67
2023-04-16T02:16:24.429Z,9.25
2023-04-16T02:19:10.114Z,7.85
2023-04-16T02:21:38.189Z,6.38
2023-04-16T02:24:05.820Z,14.30
2023-04-16T02:26:36.349Z,5.80
2023-04-16T02:29:12.864Z,5.82
2023-04-16T02:31:44.653Z,7.53
2023-04-16T02:34:13.518Z,5.18
2023-04-16T02:36:41.815Z,7.28
2023-04-16T02:39:09.328Z,9.13
2023-04-16T02:41:39.357Z,5.88
2023-04-16T02:44:06.734Z,8.98
2023-04-16T02:46:33.980Z,8.20
2023-04-16T02:49:01.422Z,5.07
2023-04-16T02:51:29.209Z,6.07
2023-04-16T02:53:56.529Z,5.68
2023-04-16T02:56:23.741Z,5.32
2023-04-16T02:58:50.897Z,6.72
2023-04-16T03:01:18.334Z,8.10
2023-04-16T03:03:45.763Z,6.57
2023-04-16T03:06:12.932Z,6.90
2023-04-16T03:08:40.097Z,6.55
2023-04-16T03:11:07.645Z,6.75
2023-04-16T03:13:34.743Z,6.15
2023-04-16T03:16:02.143Z,6.60
2023-04-16T03:18:29.697Z,6.65
2023-04-16T03:20:57.279Z,8.77
2023-04-16T03:23:24.508Z,5.20
2023-04-16T03:25:52.421Z,5.93
2023-04-16T03:28:22.800Z,6.30
2023-04-16T03:30:53.814Z,4.50
2023-04-16T03:33:21.773Z,6.22
2023-04-16T03:35:58.326Z,8.48
2023-04-16T03:38:28.223Z,10.38
2023-04-16T03:40:57.383Z,5.47
2023-04-16T03:43:25.817Z,6.68
2023-04-16T03:45:53.118Z,5.63
2023-04-16T03:48:23.455Z,5.80
2023-04-16T03:50:50.604Z,7.43
2023-04-16T03:53:19.861Z,4.70
2023-04-16T03:55:51.535Z,6.32
2023-04-16T03:58:20.367Z,4.70
2023-04-16T04:00:48.389Z,5.45
2023-04-16T04:03:17.976Z,7.82
2023-04-16T04:05:47.596Z,6.77
2023-04-16T04:08:18.391Z,4.82
2023-04-16T04:10:46.077Z,4.15
2023-04-16T04:13:14.489Z,9.55
2023-04-16T04:15:41.606Z,6.35
2023-04-16T04:18:08.712Z,5.33
2023-04-16T04:20:41.132Z,5.80
2023-04-16T04:23:08.832Z,6.75
2023-04-16T04:25:36.060Z,5.28
2023-04-16T04:28:03.212Z,6.35
2023-04-16T04:30:30.677Z,8.73
2023-04-16T04:32:57.866Z,8.48
2023-04-16T04:35:25.021Z,5.28
2023-04-16T04:37:52.968Z,7.28
2023-04-16T04:40:21.100Z,6.13
2023-04-16T04:42:48.280Z,4.80
2023-04-16T04:45:16.639Z,8.55
2023-04-16T04:47:44.019Z,5.82
2023-04-16T04:50:11.349Z,7.80
2023-04-16T04:52:38.894Z,6.63
2023-04-16T04:55:07.645Z,7.20
2023-04-16T04:57:38.055Z,6.97
2023-04-16T05:00:06.814Z,7.97
2023-04-16T05:02:42.314Z,7.30
2023-04-16T05:05:09.860Z,7.88
2023-04-16T05:07:36.941Z,8.13
2023-04-16T05:10:04.303Z,5.30
2023-04-16T05:12:31.473Z,7.18
2023-04-16T05:14:58.546Z,6.07
2023-04-16T05:17:25.633Z,8.00
2023-04-16T05:19:52.747Z,9.73
2023-04-16T05:22:19.874Z,6.10
2023-04-16T05:24:46.970Z,7.28
2023-04-16T05:27:14.063Z,6.15
2023-04-16T05:29:41.325Z,12.40
2023-04-16T05:32:08.473Z,9.33
2023-04-16T05:34:35.578Z,6.60
2023-04-16T05:37:02.846Z,5.07
2023-04-16T05:39:30.045Z,7.78
2023-04-16T05:41:57.135Z,6.15
2023-04-16T05:44:24.337Z,5.73
2023-04-16T05:46:51.448Z,4.97
2023-04-16T05:49:22.209Z,5.70
2023-04-16T05:51:50.893Z,6.65
2023-04-16T05:54:18.200Z,6.10
2023-04-16T05:56:45.428Z,6.03
2023-04-16T05:59:12.541Z,6.03
2023-04-16T06:01:39.739Z,6.13
2023-04-16T06:04:06.994Z,7.68
2023-04-16T06:06:34.105Z,6.03
2023-04-16T06:09:01.284Z,4.63
2023-04-16T06:11:30.649Z,5.28
2023-04-16T06:13:57.695Z,5.13
2023-04-16T06:16:25.020Z,6.20
2023-04-16T06:18:52.107Z,8.90
2023-04-16T06:21:19.239Z,4.73
2023-04-16T06:23:46.753Z,5.35
2023-04-16T06:26:13.969Z,8.00
2023-04-16T06:28:41.310Z,10.15
2023-04-16T06:31:08.514Z,6.15
2023-04-16T06:33:35.595Z,8.30
2023-04-16T06:36:02.769Z,5.32
2023-04-16T06:38:29.862Z,7.32
2023-04-16T06:40:57.032Z,6.75
2023-04-16T06:43:24.193Z,8.18
2023-04-16T06:45:51.334Z,7.77
2023-04-16T06:48:18.406Z,8.25
2023-04-16T06:50:45.823Z,12.25
2023-04-16T06:53:12.896Z,7.72
2023-04-16T06:55:39.973Z,7.68
2023-04-16T06:58:07.022Z,7.77
2023-04-16T07:00:34.237Z,6.20
2023-04-16T07:03:02.249Z,7.32
2023-04-16T07:05:29.461Z,8.68
2023-04-16T07:07:57.658Z,7.78
2023-04-16T07:10:25.053Z,10.23
2023-04-16T07:12:52.172Z,7.45
2023-04-16T07:15:19.218Z,8.07
2023-04-16T07:17:46.341Z,9.52
2023-04-16T07:20:13.408Z,7.80
2023-04-16T07:22:40.561Z,7.37
2023-04-16T07:25:08.426Z,10.82
2023-04-16T07:27:35.562Z,9.45
2023-04-16T07:30:02.715Z,10.35
2023-04-16T07:32:30.758Z,11.30
2023-04-16T07:34:58.395Z,9.10
2023-04-16T07:37:26.544Z,9.32
2023-04-16T07:39:56.230Z,10.15
2023-04-16T07:42:24.728Z,8.65
2023-04-16T07:44:52.425Z,9.65
2023-04-16T07:47:20.546Z,11.57
2023-04-16T07:49:48.210Z,14.32
2023-04-16T07:52:15.862Z,8.70
2023-04-16T07:54:42.931Z,8.88
2023-04-16T07:57:12.368Z,10.70
2023-04-16T07:59:40.388Z,10.67
2023-04-16T08:02:10.814Z,8.27
2023-04-16T08:04:38.978Z,8.38
2023-04-16T08:07:07.354Z,8.43
2023-04-16T08:09:38.527Z,10.40
2023-04-16T08:12:06.759Z,8.87
2023-04-16T08:14:34.547Z,13.18
2023-04-16T08:17:01.736Z,11.82
2023-04-16T08:19:28.824Z,18.20
2023-04-16T08:21:56.703Z,11.40
2023-04-16T08:24:24.452Z,12.80
2023-04-16T08:26:52.283Z,12.95
2023-04-16T08:29:21.417Z,8.52
2023-04-16T08:31:48.835Z,11.88
2023-04-16T08:34:17.411Z,12.77
2023-04-16T08:36:44.617Z,12.60
2023-04-16T08:39:12.479Z,16.00
2023-04-16T08:41:44.361Z,10.55
2023-04-16T08:44:26.869Z,17.33
2023-04-16T08:46:59.064Z,13.23
2023-04-16T08:49:27.597Z,19.37
2023-04-16T08:51:57.000Z,17.10
2023-04-16T08:54:44.813Z,14.50
2023-04-16T08:57:17.227Z,19.73
2023-04-16T08:59:47.864Z,12.52
2023-04-16T09:02:16.155Z,19.67
2023-04-16T09:04:45.083Z,13.35
2023-04-16T09:07:12.716Z,10.73
2023-04-16T09:09:41.016Z,14.23
2023-04-16T09:12:08.939Z,14.60
2023-04-16T09:14:36.314Z,11.10
2023-04-16T09:17:04.427Z,10.75
2023-04-16T09:19:32.643Z,12.13
2023-04-16T09:22:00.038Z,10.85
2023-04-16T09:24:27.222Z,11.00
2023-04-16T09:26:55.362Z,11.07
2023-04-16T09:29:40.804Z,10.75
2023-04-16T09:32:10.822Z,13.30
2023-04-16T09:35:02.268Z,11.25
2023-04-16T09:37:30.925Z,10.88
2023-04-16T09:40:04.079Z,14.97
2023-04-16T09:42:33.961Z,14.20
2023-04-16T09:45:03.376Z,18.20
2023-04-16T09:47:45.115Z,17.83
2023-04-16T09:50:18.764Z,14.00
2023-04-16T09:52:51.041Z,12.80
2023-04-16T09:55:24.050Z,16.52
2023-04-16T09:58:00.924Z,9.45
2023-04-16T10:00:30.318Z,13.77
2023-04-16T10:03:05.818Z,16.98
2023-04-16T10:05:32.998Z,13.37
2023-04-16T10:08:03.417Z,15.32
2023-04-16T10:10:30.588Z,13.15
2023-04-16T10:12:58.422Z,14.63
2023-04-16T10:15:25.863Z,10.93
2023-04-16T10:17:54.342Z,11.53
2023-04-16T10:20:23.043Z,11.77
2023-04-16T10:22:50.513Z,16.42
2023-04-16T10:25:18.149Z,12.10
2023-04-16T10:27:45.883Z,13.73
2023-04-16T10:30:15.923Z,13.87
2023-04-16T10:32:43.935Z,13.85
2023-04-16T10:35:16.920Z,10.65
2023-04-16T10:37:45.271Z,10.25
2023-04-16T10:40:27.740Z,15.02
2023-04-16T10:42:57.293Z,13.07
2023-04-16T10:45:38.296Z,11.45
2023-04-16T10:48:10.465Z,15.32
2023-04-16T10:50:37.763Z,13.30
2023-04-16T10:53:26.971Z,13.30
2023-04-16T10:56:15.444Z,11.07
2023-04-16T10:58:42.783Z,13.40
2023-04-16T11:01:14.697Z,12.65
2023-04-16T11:03:52.546Z,13.38
2023-04-16T11:06:26.667Z,14.88
2023-04-16T11:09:08.225Z,13.07
2023-04-16T11:11:39.647Z,13.57
2023-04-16T11:14:09.297Z,11.93
2023-04-16T11:16:40.701Z,13.57
2023-04-16T11:19:07.880Z,12.30
2023-04-16T11:21:35.091Z,13.33
2023-04-16T11:24:02.209Z,11.75
2023-04-16T11:26:30.994Z,9.98
2023-04-16T11:28:58.931Z,12.05
2023-04-16T11:31:27.411Z,12.45
2023-04-16T11:33:56.910Z,18.10
2023-04-16T11:36:26.203Z,12.80
2023-04-16T11:39:03.760Z,16.52
2023-04-16T11:41:30.884Z,11.82
2023-04-16T11:43:57.966Z,15.00
2023-04-16T11:46:40.549Z,12.53
2023-04-16T11:49:08.040Z,15.70
2023-04-16T11:51:46.952Z,16.00
2023-04-16T11:54:21.299Z,11.90
2023-04-16T11:56:51.156Z,15.73
2023-04-16T11:59:26.178Z,14.83
2023-04-16T12:01:57.381Z,12.57
2023-04-16T12:04:27.308Z,13.98
2023-04-16T12:07:12.236Z,11.68
2023-04-16T12:09:42.753Z,16.60
2023-04-16T12:12:32.872Z,14.20
2023-04-16T12:15:03.694Z,16.88
2023-04-16T12:17:35.924Z,13.52
2023-04-16T12:20:09.790Z,13.43
2023-04-16T12:22:49.536Z,15.82
2023-04-16T12:25:18.090Z,15.50
2023-04-16T12:27:53.378Z,13.85
2023-04-16T12:30:23.504Z,17.15
2023-04-16T12:32:53.717Z,14.25
2023-04-16T12:35:34.294Z,13.02
2023-04-16T12:38:01.622Z,15.30
2023-04-16T12:40:28.737Z,12.93
2023-04-16T12:42:56.056Z,18.48
2023-04-16T12:45:24.149Z,15.88
2023-04-16T12:47:51.541Z,16.20
2023-04-16T12:50:18.634Z,15.13
2023-04-16T12:52:45.992Z,18.13
2023-04-16T12:55:14.226Z,15.20
2023-04-16T12:57:41.926Z,19.08
2023-04-16T13:00:10.854Z,17.52
2023-04-16T13:02:38.217Z,16.60
2023-04-16T13:05:05.974Z,16.67
2023-04-16T13:07:33.985Z,15.55
2023-04-16T13:10:01.689Z,18.13
2023-04-16T13:12:28.875Z,16.33
2023-04-16T13:14:56.252Z,14.53
2023-04-16T13:17:23.354Z,15.65
2023-04-16T13:19:50.484Z,19.17
2023-04-16T13:22:17.585Z,17.58
2023-04-16T13:24:44.674Z,15.80
2023-04-16T13:27:12.771Z,19.47
2023-04-16T13:29:39.836Z,19.27
2023-04-16T13:32:06.973Z,15.75
2023-04-16T13:34:34.108Z,18.30
2023-04-16T13:37:01.245Z,16.80
2023-04-16T13:39:28.471Z,15.97
2023-04-16T13:41:55.538Z,13.65
2023-04-16T13:44:22.570Z,15.90
2023-04-16T13:46:49.879Z,17.20
2023-04-16T13:49:16.986Z,16.17
2023-04-16T13:51:46.989Z,15.93
2023-04-16T13:54:14.178Z,19.40
2023-04-16T13:56:41.543Z,18.58
2023-04-16T13:59:08.835Z,22.95
2023-04-16T14:01:36.342Z,16.88
2023-04-16T14:04:06.821Z,18.90
2023-04-16T14:06:37.167Z,20.17
2023-04-16T14:09:04.533Z,17.27
2023-04-16T14:11:31.799Z,18.40
2023-04-16T14:13:58.916Z,18.33
2023-04-16T14:16:27.319Z,17.13
2023-04-16T14:18:54.456Z,16.67
2023-04-16T14:21:21.523Z,18.55
2023-04-16T14:23:48.566Z,18.60
2023-04-16T14:26:15.707Z,18.92
2023-04-16T14:28:42.824Z,19.53
2023-04-16T14:31:09.948Z,21.33
2023-04-16T14:33:37.072Z,15.43
2023-04-16T14:36:04.482Z,17.70
2023-04-16T14:38:31.987Z,18.30
2023-04-16T14:41:00.447Z,19.53
2023-04-16T14:43:27.707Z,22.17
2023-04-16T14:45:54.927Z,17.88
2023-04-16T14:48:22.211Z,20.20
2023-04-16T14:50:49.512Z,20.75
2023-04-16T14:53:16.815Z,20.43
2023-04-16T14:55:44.158Z,23.58
2023-04-16T14:58:11.233Z,20.33
2023-04-16T15:00:38.354Z,24.65
2023-04-16T15:03:06.094Z,21.20
2023-04-16T15:05:33.853Z,19.80
2023-04-16T15:08:01.123Z,17.23
2023-04-16T15:10:28.529Z,19.83
2023-04-16T15:12:55.649Z,16.20
2023-04-16T15:15:22.668Z,15.55
2023-04-16T15:17:51.066Z,22.13
2023-04-16T15:20:18.540Z,18.45
2023-04-16T15:22:45.615Z,15.48
2023-04-16T15:25:12.744Z,20.42
2023-04-16T15:27:39.831Z,23.73
2023-04-16T15:30:08.168Z,16.80
2023-04-16T15:32:35.325Z,20.67
2023-04-16T15:35:04.792Z,20.95
2023-04-16T15:37:31.964Z,23.88
2023-04-16T15:39:59.056Z,16.05
2023-04-16T15:42:26.143Z,17.90
2023-04-16T15:44:53.292Z,20.00
2023-04-16T15:47:20.855Z,18.58
2023-04-16T15:49:48.024Z,20.33
2023-04-16T15:52:15.779Z,20.70
2023-04-16T15:54:43.170Z,14.07
2023-04-16T15:57:10.555Z,18.48
2023-04-16T15:59:37.669Z,22.63
2023-04-16T16:02:04.840Z,15.30
2023-04-16T16:04:32.193Z,15.70
2023-04-16T16:06:59.397Z,14.13
2023-04-16T16:09:26.853Z,13.90
2023-04-16T16:11:55.413Z,17.38
2023-04-16T16:14:23.969Z,14.15
2023-04-16T16:16:51.758Z,17.42
2023-04-16T16:19:19.469Z,20.80
2023-04-16T16:21:47.341Z,16.80
2023-04-16T16:24:15.881Z,16.92
2023-04-16T16:26:43.879Z,16.48
2023-04-16T16:29:11.629Z,15.40
2023-04-16T16:31:40.145Z,13.87
2023-04-16T16:34:07.681Z,18.80
2023-04-16T16:36:37.845Z,18.38
2023-04-16T16:39:05.436Z,19.00
2023-04-16T16:41:35.282Z,13.95
2023-04-16T16:44:02.376Z,18.73
2023-04-16T16:46:29.616Z,19.20
2023-04-16T16:48:56.997Z,17.95
2023-04-16T16:51:24.072Z,19.00
2023-04-16T16:53:51.156Z,16.05
2023-04-16T16:56:18.372Z,18.40
2023-04-16T16:58:45.518Z,19.27
2023-04-16T17:01:12.667Z,21.17
2023-04-16T17:03:40.539Z,18.85
2023-04-16T17:06:08.881Z,17.45
2023-04-16T17:08:36.158Z,16.17
2023-04-16T17:11:04.322Z,20.30
2023-04-16T17:13:32.673Z,18.83
2023-04-16T17:15:59.939Z,18.92
2023-04-16T17:18:28.497Z,19.75
2023-04-16T17:20:55.580Z,18.43
2023-04-16T17:23:22.702Z,25.10
2023-04-16T17:25:50.098Z,22.27
2023-04-16T17:28:17.192Z,23.30
2023-04-16T17:30:44.779Z,22.80
2023-04-16T17:33:11.962Z,23.03
2023-04-16T17:35:40.987Z,23.30
2023-04-16T17:38:08.130Z,22.88
2023-04-16T17:40:35.278Z,24.70
2023-04-16T17:43:02.360Z,23.38
2023-04-16T17:45:29.413Z,22.97
2023-04-16T17:47:56.575Z,23.05
2023-04-16T17:50:23.782Z,20.83
2023-04-16T17:52:50.847Z,22.65
2023-04-16T17:55:17.955Z,28.35
2023-04-16T17:57:45.056Z,20.83
2023-04-16T18:00:12.750Z,21.95
2023-04-16T18:02:43.751Z,23.77
2023-04-16T18:05:11.313Z,25.08
2023-04-16T18:07:39.059Z,25.48
2023-04-16T18:10:07.283Z,22.60
2023-04-16T18:12:34.409Z,25.92
2023-04-16T18:15:01.542Z,25.38
2023-04-16T18:17:29.010Z,25.38
2023-04-16T18:19:56.963Z,29.00
2023-04-16T18:22:25.696Z,25.47
2023-04-16T18:24:54.968Z,27.92
2023-04-16T18:27:22.058Z,31.15
2023-04-16T18:29:49.479Z,26.88
2023-04-16T18:32:16.905Z,31.20
2023-04-16T18:34:44.178Z,34.30
2023-04-16T18:37:11.351Z,40.38
2023-04-16T18:39:38.446Z,29.67
2023-04-16T18:42:05.716Z,34.08
2023-04-16T18:44:32.770Z,32.15
2023-04-16T18:46:59.905Z,25.33
2023-04-16T18:49:27.567Z,31.58
2023-04-16T18:51:57.623Z,24.55
2023-04-16T18:54:24.792Z,29.65
2023-04-16T18:56:51.857Z,29.45
2023-04-16T18:59:19.034Z,27.77
2023-04-16T19:01:46.357Z,28.08
2023-04-16T19:04:13.448Z,26.98
2023-04-16T19:06:40.567Z,31.58
2023-04-16T19:09:08.835Z,25.63
2023-04-16T19:11:37.926Z,24.63
2023-04-16T19:14:05.809Z,26.55
2023-04-16T19:16:33.239Z,27.77
2023-04-16T19:19:00.949Z,24.90
2023-04-16T19:21:28.302Z,23.73
2023-04-16T19:23:55.363Z,30.73
2023-04-16T19:26:22.481Z,27.60
2023-04-16T19:28:49.522Z,27.65
2023-04-16T19:31:16.651Z,27.48
2023-04-16T19:33:43.753Z,28.83
2023-04-16T19:36:10.872Z,28.97
2023-04-16T19:38:38.013Z,29.02
2023-04-16T19:41:05.058Z,31.67
2023-04-16T19:43:32.183Z,30.00
2023-04-16T19:45:59.429Z,35.60
2023-04-16T19:48:26.589Z,29.93
2023-04-16T19:50:53.704Z,26.98
2023-04-16T19:53:21.785Z,32.15
2023-04-16T19:55:48.891Z,31.65
2023-04-16T19:58:16.052Z,27.55
2023-04-16T20:00:43.544Z,25.60
2023-04-16T20:03:10.912Z,30.33
2023-04-16T20:05:38.053Z,30.60
2023-04-16T20:08:05.808Z,29.75
2023-04-16T20:10:32.883Z,33.38
2023-04-16T20:12:59.998Z,37.77
2023-04-16T20:15:27.271Z,37.20
2023-04-16T20:17:56.236Z,32.80
2023-04-16T20:20:23.639Z,36.30
2023-04-16T20:22:50.916Z,44.35
2023-04-16T20:25:19.284Z,34.73
2023-04-16T20:27:46.730Z,46.25
2023-04-16T20:30:14.360Z,43.03
2023-04-16T20:32:41.561Z,34.70
2023-04-16T20:35:11.398Z,43.40
2023-04-16T20:37:38.945Z,33.50
2023-04-16T20:40:09.987Z,35.63
2023-04-16T20:42:37.141Z,36.45
2023-04-16T20:45:04.859Z,32.85
2023-04-16T20:47:34.671Z,40.72
2023-04-16T20:50:02.700Z,39.23
2023-04-16T20:52:29.825Z,41.70
2023-04-16T20:54:57.916Z,41.15
2023-04-16T20:57:25.849Z,35.92
2023-04-16T20:59:52.932Z,33.47
2023-04-16T21:02:20.759Z,33.83
2023-04-16T21:04:48.149Z,35.47
2023-04-16T21:07:15.645Z,38.15
2023-04-16T21:09:42.701Z,33.08
2023-04-16T21:12:09.744Z,35.50
2023-04-16T21:14:36.948Z,37.63
2023-04-16T21:17:03.983Z,36.95
2023-04-16T21:19:31.277Z,34.88
2023-04-16T21:21:58.314Z,36.20
2023-04-16T21:24:25.489Z,33.53
2023-04-16T21:26:52.534Z,38.37
2023-04-16T21:29:19.574Z,31.42
2023-04-16T21:31:46.859Z,32.85
2023-04-16T21:34:14.017Z,32.28
2023-04-16T21:36:41.167Z,30.17
2023-04-16T21:39:08.492Z,31.90
2023-04-16T21:41:35.798Z,35.58
2023-04-16T21:44:02.908Z,36.10
2023-04-16T21:46:29.980Z,31.15
2023-04-16T21:48:57.063Z,31.95
2023-04-16T21:51:29.281Z,32.20
2023-04-16T21:53:57.485Z,30.90
2023-04-16T21:56:25.846Z,31.65
2023-04-16T21:58:52.955Z,32.03
2023-04-16T22:01:20.017Z,36.70
2023-04-16T22:03:50.578Z,28.53
2023-04-16T22:06:18.377Z,31.58
2023-04-16T22:08:45.412Z,32.42
2023-04-16T22:11:12.627Z,32.97
2023-04-16T22:13:42.144Z,29.67
2023-04-16T22:16:11.580Z,33.77
2023-04-16T22:18:41.155Z,32.25
2023-04-16T22:21:08.303Z,29.73
2023-04-16T22:23:35.566Z,33.53
2023-04-16T22:26:02.897Z,29.05
2023-04-16T22:28:30.234Z,28.33
2023-04-16T22:30:57.389Z,29.27
2023-04-16T22:33:24.519Z,28.63
2023-04-16T22:35:51.629Z,30.77
2023-04-16T22:38:18.723Z,27.65
2023-04-16T22:40:48.955Z,28.43
2023-04-16T22:43:17.606Z,28.73
2023-04-16T22:45:46.294Z,32.28
2023-04-16T22:48:13.577Z,29.58
2023-04-16T22:50:45.840Z,33.33
2023-04-16T22:53:12.931Z,30.27
2023-04-16T22:55:39.956Z,28.85
2023-04-16T22:58:06.973Z,29.50
2023-04-16T23:00:34.249Z,30.27
2023-04-16T23:03:01.429Z,30.60
2023-04-16T23:05:28.767Z,30.07
2023-04-16T23:07:55.960Z,33.38
2023-04-16T23:10:23.021Z,36.20
2023-04-16T23:12:50.120Z,30.27
2023-04-16T23:15:17.418Z,36.00
2023-04-16T23:17:45.522Z,31.43
2023-04-16T23:20:13.401Z,29.25
2023-04-16T23:22:41.381Z,32.55
2023-04-16T23:25:09.265Z,29.83
2023-04-16T23:27:37.484Z,35.80
2023-04-16T23:30:05.475Z,36.83
2023-04-16T23:32:34.153Z,36.55
2023-04-16T23:35:01.385Z,35.40
2023-04-16T23:37:28.465Z,35.75
2023-04-16T23:39:55.649Z,36.42
2023-04-16T23:42:22.721Z,33.37
2023-04-16T23:44:49.800Z,33.17
2023-04-16T23:47:16.861Z,36.85
2023-04-16T23:49:43.891Z,34.78
2023-04-16T23:52:10.962Z,33.38
2023-04-16T23:54:38.064Z,36.43
2023-04-16T23:57:05.237Z,30.42
2023-04-16T23:59:32.249Z,35.20
